Pagina principale
METAR-TAF:

METAR-TAF

Aeroporti :

Aeroporto di Maun

Maun, Botswana

latitudine: 19-59S, longitudine: 023-25E, altezza: 945 m

Osservazione

Il bollettino è stato emesso 2 ore e 12 minuti fa, alle 14:00 UTC
Vento 15 kt da sud-est
Temperature 25°C
Umidità 32%
Pressione 1023 hPa
Visibilità 10 km o più
nessuna nube inferiore a 1500 m e nessun cumulonembo

METAR: FBMN 231400Z 13015KT CAVOK 25/07 Q1023

Ora: 18:12 (16:12 UTC)

Previsione

Il bollettino è stato emesso 4 ore e 12 minuti fa, alle 12:00 UTC
Previsione valida dal 23 alle 15 UTC al 23 alle 24 UTC
Vento 12 kt da est
Visibilità 10 km o più
nessuna nube inferiore a 1500 m e nessun cumulonembo

TAF: FBMN 231200Z 2315/2324 09012KT CAVOK

Osservazioni e previsioni meteorologiche di più di 4000 aeroporti (messaggi METAR e TAF).

Le stazioni disponibili sono rappresentate dai dischi gialli e rossi sulla carta.

Puntare il mouse per vedere il nome della stazione.

Clicca sopra per visualizzare le osservazioni e previsioni meteorologiche.

Per cambiare la mappa : fare clic sui pulsanti verdi con una croce nera per ingrandire, il pulsante verde con un trattino per diminuire, o sulla freccia verde per le mappe adiacenti.


METAR-TAF: